sensor_id;sensor_type;location;lat;lon;timestamp;temperature;humidity
11491;DHT22;5802;52.832;4.758;2022-12-18T00:01:16;21.90;38.10
11491;DHT22;5802;52.832;4.758;2022-12-18T00:03:44;21.90;38.10
11491;DHT22;5802;52.832;4.758;2022-12-18T00:06:11;21.90;38.10
11491;DHT22;5802;52.832;4.758;2022-12-18T00:08:39;21.90;38.10
11491;DHT22;5802;52.832;4.758;2022-12-18T00:11:07;21.90;38.00
11491;DHT22;5802;52.832;4.758;2022-12-18T00:13:34;21.90;38.10
11491;DHT22;5802;52.832;4.758;2022-12-18T00:16:02;21.90;38.00
11491;DHT22;5802;52.832;4.758;2022-12-18T00:18:30;21.90;38.10
11491;DHT22;5802;52.832;4.758;2022-12-18T00:20:59;21.90;38.00
11491;DHT22;5802;52.832;4.758;2022-12-18T00:23:26;21.90;38.00
11491;DHT22;5802;52.832;4.758;2022-12-18T00:25:53;21.90;38.00
11491;DHT22;5802;52.832;4.758;2022-12-18T00:28:19;21.90;38.00
11491;DHT22;5802;52.832;4.758;2022-12-18T00:30:46;21.90;38.00
11491;DHT22;5802;52.832;4.758;2022-12-18T00:33:16;21.90;38.00
11491;DHT22;5802;52.832;4.758;2022-12-18T00:35:44;21.90;38.00
11491;DHT22;5802;52.832;4.758;2022-12-18T00:38:11;21.90;38.00
11491;DHT22;5802;52.832;4.758;2022-12-18T00:40:38;21.90;38.00
11491;DHT22;5802;52.832;4.758;2022-12-18T00:43:05;21.90;37.90
11491;DHT22;5802;52.832;4.758;2022-12-18T00:45:31;21.90;37.90
11491;DHT22;5802;52.832;4.758;2022-12-18T00:47:57;21.90;38.00
11491;DHT22;5802;52.832;4.758;2022-12-18T00:50:25;21.90;38.00
11491;DHT22;5802;52.832;4.758;2022-12-18T00:52:53;21.80;37.90
11491;DHT22;5802;52.832;4.758;2022-12-18T00:55:19;21.90;37.90
11491;DHT22;5802;52.832;4.758;2022-12-18T00:57:46;21.90;37.90
11491;DHT22;5802;52.832;4.758;2022-12-18T01:00:14;21.90;38.00
11491;DHT22;5802;52.832;4.758;2022-12-18T01:02:41;21.90;37.80
11491;DHT22;5802;52.832;4.758;2022-12-18T01:05:09;21.90;37.80
11491;DHT22;5802;52.832;4.758;2022-12-18T01:07:36;21.90;37.90
11491;DHT22;5802;52.832;4.758;2022-12-18T01:10:06;21.90;37.80
11491;DHT22;5802;52.832;4.758;2022-12-18T01:12:33;21.90;37.80
11491;DHT22;5802;52.832;4.758;2022-12-18T01:15:00;21.90;37.80
11491;DHT22;5802;52.832;4.758;2022-12-18T01:17:27;21.90;37.70
11491;DHT22;5802;52.832;4.758;2022-12-18T01:19:54;21.90;37.80
11491;DHT22;5802;52.832;4.758;2022-12-18T01:22:21;21.90;37.70
11491;DHT22;5802;52.832;4.758;2022-12-18T01:24:48;21.90;37.70
11491;DHT22;5802;52.832;4.758;2022-12-18T01:27:16;21.90;37.70
11491;DHT22;5802;52.832;4.758;2022-12-18T01:29:43;21.90;37.70
11491;DHT22;5802;52.832;4.758;2022-12-18T01:32:09;21.90;37.70
11491;DHT22;5802;52.832;4.758;2022-12-18T01:34:36;21.90;37.70
11491;DHT22;5802;52.832;4.758;2022-12-18T01:37:03;21.90;37.70
11491;DHT22;5802;52.832;4.758;2022-12-18T01:39:30;21.90;37.70
11491;DHT22;5802;52.832;4.758;2022-12-18T01:41:57;21.90;37.70
11491;DHT22;5802;52.832;4.758;2022-12-18T01:44:54;21.90;37.70
11491;DHT22;5802;52.832;4.758;2022-12-18T01:47:24;21.90;37.70
11491;DHT22;5802;52.832;4.758;2022-12-18T01:49:51;21.80;37.60
11491;DHT22;5802;52.832;4.758;2022-12-18T01:52:19;21.80;37.70
11491;DHT22;5802;52.832;4.758;2022-12-18T01:54:46;21.80;37.60
11491;DHT22;5802;52.832;4.758;2022-12-18T01:57:13;21.80;37.60
11491;DHT22;5802;52.832;4.758;2022-12-18T01:59:42;21.80;37.70
11491;DHT22;5802;52.832;4.758;2022-12-18T02:02:11;21.90;37.60
11491;DHT22;5802;52.832;4.758;2022-12-18T02:04:38;21.90;37.60
11491;DHT22;5802;52.832;4.758;2022-12-18T02:07:10;21.80;37.60
11491;DHT22;5802;52.832;4.758;2022-12-18T02:09:43;21.90;37.70
11491;DHT22;5802;52.832;4.758;2022-12-18T02:12:16;21.90;37.60
11491;DHT22;5802;52.832;4.758;2022-12-18T02:14:45;21.80;37.60
11491;DHT22;5802;52.832;4.758;2022-12-18T02:17:19;21.80;37.60
11491;DHT22;5802;52.832;4.758;2022-12-18T02:19:58;21.80;37.50
11491;DHT22;5802;52.832;4.758;2022-12-18T02:22:37;21.80;37.60
11491;DHT22;5802;52.832;4.758;2022-12-18T02:25:17;21.80;37.60
11491;DHT22;5802;52.832;4.758;2022-12-18T02:27:50;21.80;37.50
11491;DHT22;5802;52.832;4.758;2022-12-18T02:30:18;21.80;37.60
11491;DHT22;5802;52.832;4.758;2022-12-18T02:32:51;21.80;37.60
11491;DHT22;5802;52.832;4.758;2022-12-18T02:35:23;21.80;37.60
11491;DHT22;5802;52.832;4.758;2022-12-18T02:37:51;21.80;37.50
11491;DHT22;5802;52.832;4.758;2022-12-18T02:40:21;21.80;37.50
11491;DHT22;5802;52.832;4.758;2022-12-18T02:42:50;21.80;37.50
11491;DHT22;5802;52.832;4.758;2022-12-18T02:45:17;21.80;37.50
11491;DHT22;5802;52.832;4.758;2022-12-18T02:47:47;21.80;37.50
11491;DHT22;5802;52.832;4.758;2022-12-18T02:50:19;21.80;37.50
11491;DHT22;5802;52.832;4.758;2022-12-18T02:52:53;21.80;37.50
11491;DHT22;5802;52.832;4.758;2022-12-18T02:55:28;21.80;37.50
11491;DHT22;5802;52.832;4.758;2022-12-18T02:58:04;21.80;37.50
11491;DHT22;5802;52.832;4.758;2022-12-18T03:00:35;21.80;37.50
11491;DHT22;5802;52.832;4.758;2022-12-18T03:03:07;21.80;37.50
11491;DHT22;5802;52.832;4.758;2022-12-18T03:05:40;21.80;37.40
11491;DHT22;5802;52.832;4.758;2022-12-18T03:08:10;21.80;37.50
11491;DHT22;5802;52.832;4.758;2022-12-18T03:10:42;21.80;37.40
11491;DHT22;5802;52.832;4.758;2022-12-18T03:13:15;21.80;37.40
11491;DHT22;5802;52.832;4.758;2022-12-18T03:15:48;21.80;37.40
11491;DHT22;5802;52.832;4.758;2022-12-18T03:18:18;21.80;37.30
11491;DHT22;5802;52.832;4.758;2022-12-18T03:20:47;21.80;37.30
11491;DHT22;5802;52.832;4.758;2022-12-18T03:23:19;21.80;37.30
11491;DHT22;5802;52.832;4.758;2022-12-18T03:25:47;21.80;37.30
11491;DHT22;5802;52.832;4.758;2022-12-18T03:28:20;21.80;37.30
11491;DHT22;5802;52.832;4.758;2022-12-18T03:30:50;21.80;37.30
11491;DHT22;5802;52.832;4.758;2022-12-18T03:33:21;21.80;37.30
11491;DHT22;5802;52.832;4.758;2022-12-18T03:35:51;21.80;37.20
11491;DHT22;5802;52.832;4.758;2022-12-18T03:38:17;21.80;37.20
11491;DHT22;5802;52.832;4.758;2022-12-18T03:40:51;21.80;37.20
11491;DHT22;5802;52.832;4.758;2022-12-18T03:43:32;21.80;37.20
11491;DHT22;5802;52.832;4.758;2022-12-18T03:46:05;21.80;37.20
11491;DHT22;5802;52.832;4.758;2022-12-18T03:48:38;21.80;37.20
11491;DHT22;5802;52.832;4.758;2022-12-18T03:51:10;21.80;37.20
11491;DHT22;5802;52.832;4.758;2022-12-18T03:53:41;21.80;37.20
11491;DHT22;5802;52.832;4.758;2022-12-18T03:56:11;21.80;37.30
11491;DHT22;5802;52.832;4.758;2022-12-18T03:58:41;21.80;37.20
11491;DHT22;5802;52.832;4.758;2022-12-18T04:01:12;21.80;37.20
11491;DHT22;5802;52.832;4.758;2022-12-18T04:03:40;21.80;37.20
11491;DHT22;5802;52.832;4.758;2022-12-18T04:06:09;21.80;37.20
11491;DHT22;5802;52.832;4.758;2022-12-18T04:08:37;21.80;37.20
11491;DHT22;5802;52.832;4.758;2022-12-18T04:11:05;21.80;37.10
11491;DHT22;5802;52.832;4.758;2022-12-18T04:13:34;21.80;37.10
11491;DHT22;5802;52.832;4.758;2022-12-18T04:16:03;21.80;37.20
11491;DHT22;5802;52.832;4.758;2022-12-18T04:18:30;21.80;37.20
11491;DHT22;5802;52.832;4.758;2022-12-18T04:20:56;21.80;37.10
11491;DHT22;5802;52.832;4.758;2022-12-18T04:23:23;21.80;37.00
11491;DHT22;5802;52.832;4.758;2022-12-18T04:25:50;21.80;37.10
11491;DHT22;5802;52.832;4.758;2022-12-18T04:28:16;21.80;37.00
11491;DHT22;5802;52.832;4.758;2022-12-18T04:30:43;21.80;37.00
11491;DHT22;5802;52.832;4.758;2022-12-18T04:33:11;21.80;37.00
11491;DHT22;5802;52.832;4.758;2022-12-18T04:35:38;21.80;37.00
11491;DHT22;5802;52.832;4.758;2022-12-18T04:38:07;21.80;37.00
11491;DHT22;5802;52.832;4.758;2022-12-18T04:40:34;21.90;37.10
11491;DHT22;5802;52.832;4.758;2022-12-18T04:43:01;21.90;37.00
11491;DHT22;5802;52.832;4.758;2022-12-18T04:45:29;21.80;37.00
11491;DHT22;5802;52.832;4.758;2022-12-18T04:47:57;21.90;37.00
11491;DHT22;5802;52.832;4.758;2022-12-18T04:50:25;21.80;36.90
11491;DHT22;5802;52.832;4.758;2022-12-18T04:52:51;21.90;36.90
11491;DHT22;5802;52.832;4.758;2022-12-18T04:55:18;21.90;36.90
11491;DHT22;5802;52.832;4.758;2022-12-18T04:57:45;21.80;36.90
11491;DHT22;5802;52.832;4.758;2022-12-18T05:00:13;21.80;36.90
11491;DHT22;5802;52.832;4.758;2022-12-18T05:02:40;21.80;36.90
11491;DHT22;5802;52.832;4.758;2022-12-18T05:05:07;21.80;36.90
11491;DHT22;5802;52.832;4.758;2022-12-18T05:07:35;21.80;36.90
11491;DHT22;5802;52.832;4.758;2022-12-18T05:10:03;21.80;36.90
11491;DHT22;5802;52.832;4.758;2022-12-18T05:12:33;21.80;36.90
11491;DHT22;5802;52.832;4.758;2022-12-18T05:15:19;21.80;37.50
11491;DHT22;5802;52.832;4.758;2022-12-18T05:17:46;21.90;36.90
11491;DHT22;5802;52.832;4.758;2022-12-18T05:20:13;21.90;37.00
11491;DHT22;5802;52.832;4.758;2022-12-18T05:22:41;21.80;36.90
11491;DHT22;5802;52.832;4.758;2022-12-18T05:25:08;21.90;36.90
11491;DHT22;5802;52.832;4.758;2022-12-18T05:27:34;21.90;36.90
11491;DHT22;5802;52.832;4.758;2022-12-18T05:30:01;21.80;36.90
11491;DHT22;5802;52.832;4.758;2022-12-18T05:32:28;21.90;36.90
11491;DHT22;5802;52.832;4.758;2022-12-18T05:34:55;21.80;36.90
11491;DHT22;5802;52.832;4.758;2022-12-18T05:37:22;21.90;36.90
11491;DHT22;5802;52.832;4.758;2022-12-18T05:39:50;21.90;36.90
11491;DHT22;5802;52.832;4.758;2022-12-18T05:42:17;21.90;36.90
11491;DHT22;5802;52.832;4.758;2022-12-18T05:44:44;21.90;36.90
11491;DHT22;5802;52.832;4.758;2022-12-18T05:47:10;21.90;36.80
11491;DHT22;5802;52.832;4.758;2022-12-18T05:49:37;21.90;36.80
11491;DHT22;5802;52.832;4.758;2022-12-18T05:52:04;21.90;36.80
11491;DHT22;5802;52.832;4.758;2022-12-18T05:54:31;21.90;36.80
11491;DHT22;5802;52.832;4.758;2022-12-18T05:56:59;21.80;36.70
11491;DHT22;5802;52.832;4.758;2022-12-18T05:59:25;21.90;36.80
11491;DHT22;5802;52.832;4.758;2022-12-18T06:01:52;21.90;36.80
11491;DHT22;5802;52.832;4.758;2022-12-18T06:04:18;21.90;36.80
11491;DHT22;5802;52.832;4.758;2022-12-18T06:06:45;21.90;36.80
11491;DHT22;5802;52.832;4.758;2022-12-18T06:09:12;21.90;36.80
11491;DHT22;5802;52.832;4.758;2022-12-18T06:11:38;21.90;36.70
11491;DHT22;5802;52.832;4.758;2022-12-18T06:14:08;21.90;36.80
11491;DHT22;5802;52.832;4.758;2022-12-18T06:16:36;21.90;36.70
11491;DHT22;5802;52.832;4.758;2022-12-18T06:19:04;21.90;36.70
11491;DHT22;5802;52.832;4.758;2022-12-18T06:21:32;21.90;36.70
11491;DHT22;5802;52.832;4.758;2022-12-18T06:23:59;21.90;36.60
11491;DHT22;5802;52.832;4.758;2022-12-18T06:26:26;21.90;36.70
11491;DHT22;5802;52.832;4.758;2022-12-18T06:28:53;21.90;36.60
11491;DHT22;5802;52.832;4.758;2022-12-18T06:31:21;21.90;36.60
11491;DHT22;5802;52.832;4.758;2022-12-18T06:33:48;21.90;36.60
11491;DHT22;5802;52.832;4.758;2022-12-18T06:36:14;21.90;36.60
11491;DHT22;5802;52.832;4.758;2022-12-18T06:38:43;21.90;36.60
11491;DHT22;5802;52.832;4.758;2022-12-18T06:41:11;21.90;36.60
11491;DHT22;5802;52.832;4.758;2022-12-18T06:43:38;21.90;36.60
11491;DHT22;5802;52.832;4.758;2022-12-18T06:46:05;21.80;36.60
11491;DHT22;5802;52.832;4.758;2022-12-18T06:48:34;21.80;36.50
11491;DHT22;5802;52.832;4.758;2022-12-18T06:51:00;21.90;36.50
11491;DHT22;5802;52.832;4.758;2022-12-18T06:53:27;21.80;36.40
11491;DHT22;5802;52.832;4.758;2022-12-18T06:56:00;21.80;36.40
11491;DHT22;5802;52.832;4.758;2022-12-18T06:58:27;21.90;36.50
11491;DHT22;5802;52.832;4.758;2022-12-18T07:00:53;21.80;36.60
11491;DHT22;5802;52.832;4.758;2022-12-18T07:03:20;21.80;36.60
11491;DHT22;5802;52.832;4.758;2022-12-18T07:05:48;21.80;36.60
11491;DHT22;5802;52.832;4.758;2022-12-18T07:08:15;21.80;36.60
11491;DHT22;5802;52.832;4.758;2022-12-18T07:10:42;21.80;36.60
11491;DHT22;5802;52.832;4.758;2022-12-18T07:13:09;21.80;37.30
11491;DHT22;5802;52.832;4.758;2022-12-18T07:15:36;21.80;36.70
11491;DHT22;5802;52.832;4.758;2022-12-18T07:18:03;21.80;36.70
11491;DHT22;5802;52.832;4.758;2022-12-18T07:20:29;21.80;36.70
11491;DHT22;5802;52.832;4.758;2022-12-18T07:22:57;21.80;36.70
11491;DHT22;5802;52.832;4.758;2022-12-18T07:25:24;21.80;36.70
11491;DHT22;5802;52.832;4.758;2022-12-18T07:27:51;21.80;36.70
11491;DHT22;5802;52.832;4.758;2022-12-18T07:30:17;21.80;36.70
11491;DHT22;5802;52.832;4.758;2022-12-18T07:32:44;21.80;36.70
11491;DHT22;5802;52.832;4.758;2022-12-18T07:35:11;21.80;36.70
11491;DHT22;5802;52.832;4.758;2022-12-18T07:37:37;21.80;36.70
11491;DHT22;5802;52.832;4.758;2022-12-18T07:40:07;21.80;36.70
11491;DHT22;5802;52.832;4.758;2022-12-18T07:42:34;21.80;36.70
11491;DHT22;5802;52.832;4.758;2022-12-18T07:45:03;21.80;36.70
11491;DHT22;5802;52.832;4.758;2022-12-18T07:47:30;21.80;36.60
11491;DHT22;5802;52.832;4.758;2022-12-18T07:49:56;21.80;36.60
11491;DHT22;5802;52.832;4.758;2022-12-18T07:52:23;21.80;36.60
11491;DHT22;5802;52.832;4.758;2022-12-18T07:54:50;21.80;36.60
11491;DHT22;5802;52.832;4.758;2022-12-18T07:57:18;21.80;36.60
11491;DHT22;5802;52.832;4.758;2022-12-18T07:59:44;21.80;36.60
11491;DHT22;5802;52.832;4.758;2022-12-18T08:02:11;21.80;36.60
11491;DHT22;5802;52.832;4.758;2022-12-18T08:04:38;21.80;36.60
11491;DHT22;5802;52.832;4.758;2022-12-18T08:07:04;21.80;36.50
11491;DHT22;5802;52.832;4.758;2022-12-18T08:09:31;21.80;36.40
11491;DHT22;5802;52.832;4.758;2022-12-18T08:11:58;21.80;36.40
11491;DHT22;5802;52.832;4.758;2022-12-18T08:14:26;21.80;36.30
11491;DHT22;5802;52.832;4.758;2022-12-18T08:16:52;21.80;36.30
11491;DHT22;5802;52.832;4.758;2022-12-18T08:19:19;21.80;36.30
11491;DHT22;5802;52.832;4.758;2022-12-18T08:21:46;21.80;36.10
11491;DHT22;5802;52.832;4.758;2022-12-18T08:24:12;21.80;35.90
11491;DHT22;5802;52.832;4.758;2022-12-18T08:26:39;21.80;36.00
11491;DHT22;5802;52.832;4.758;2022-12-18T08:29:05;21.80;36.50
11491;DHT22;5802;52.832;4.758;2022-12-18T08:31:34;21.80;35.70
11491;DHT22;5802;52.832;4.758;2022-12-18T08:34:00;21.80;35.70
11491;DHT22;5802;52.832;4.758;2022-12-18T08:36:27;21.80;35.70
11491;DHT22;5802;52.832;4.758;2022-12-18T08:38:54;21.80;35.70
11491;DHT22;5802;52.832;4.758;2022-12-18T08:41:21;21.80;35.40
11491;DHT22;5802;52.832;4.758;2022-12-18T08:43:47;21.80;35.40
11491;DHT22;5802;52.832;4.758;2022-12-18T08:46:35;21.80;35.40
11491;DHT22;5802;52.832;4.758;2022-12-18T08:49:03;21.80;35.30
11491;DHT22;5802;52.832;4.758;2022-12-18T08:51:30;21.80;35.30
11491;DHT22;5802;52.832;4.758;2022-12-18T08:53:56;21.80;35.10
11491;DHT22;5802;52.832;4.758;2022-12-18T08:56:23;21.80;35.00
11491;DHT22;5802;52.832;4.758;2022-12-18T08:58:51;21.80;34.90
11491;DHT22;5802;52.832;4.758;2022-12-18T09:01:18;21.80;34.90
11491;DHT22;5802;52.832;4.758;2022-12-18T09:03:47;21.80;34.80
11491;DHT22;5802;52.832;4.758;2022-12-18T09:06:15;21.80;34.70
11491;DHT22;5802;52.832;4.758;2022-12-18T09:08:42;21.80;34.70
11491;DHT22;5802;52.832;4.758;2022-12-18T09:11:13;21.80;34.70
11491;DHT22;5802;52.832;4.758;2022-12-18T09:13:40;21.80;34.60
11491;DHT22;5802;52.832;4.758;2022-12-18T09:16:07;21.80;34.60
11491;DHT22;5802;52.832;4.758;2022-12-18T09:18:33;21.80;34.50
11491;DHT22;5802;52.832;4.758;2022-12-18T09:21:07;21.80;34.50
11491;DHT22;5802;52.832;4.758;2022-12-18T09:23:34;21.80;34.40
11491;DHT22;5802;52.832;4.758;2022-12-18T09:26:01;21.80;34.40
11491;DHT22;5802;52.832;4.758;2022-12-18T09:28:28;21.80;34.30
11491;DHT22;5802;52.832;4.758;2022-12-18T09:30:55;21.80;34.20
11491;DHT22;5802;52.832;4.758;2022-12-18T09:33:21;21.80;34.20
11491;DHT22;5802;52.832;4.758;2022-12-18T09:35:48;21.80;34.20
11491;DHT22;5802;52.832;4.758;2022-12-18T09:38:18;21.80;34.20
11491;DHT22;5802;52.832;4.758;2022-12-18T09:40:48;21.80;34.00
11491;DHT22;5802;52.832;4.758;2022-12-18T09:43:18;21.90;34.10
11491;DHT22;5802;52.832;4.758;2022-12-18T09:45:47;21.90;34.00
11491;DHT22;5802;52.832;4.758;2022-12-18T09:48:19;21.80;34.30
11491;DHT22;5802;52.832;4.758;2022-12-18T09:50:47;21.90;34.00
11491;DHT22;5802;52.832;4.758;2022-12-18T09:53:19;21.90;34.00
11491;DHT22;5802;52.832;4.758;2022-12-18T09:55:48;21.90;34.10
11491;DHT22;5802;52.832;4.758;2022-12-18T09:58:20;21.90;34.20
11491;DHT22;5802;52.832;4.758;2022-12-18T10:00:52;21.90;34.40
11491;DHT22;5802;52.832;4.758;2022-12-18T10:03:19;21.90;34.40
11491;DHT22;5802;52.832;4.758;2022-12-18T10:05:54;21.90;34.60
11491;DHT22;5802;52.832;4.758;2022-12-18T10:08:33;21.90;34.70
11491;DHT22;5802;52.832;4.758;2022-12-18T10:11:20;21.90;34.70
11491;DHT22;5802;52.832;4.758;2022-12-18T10:13:52;21.90;34.90
11491;DHT22;5802;52.832;4.758;2022-12-18T10:16:27;21.90;34.90
11491;DHT22;5802;52.832;4.758;2022-12-18T10:19:02;21.90;35.00
11491;DHT22;5802;52.832;4.758;2022-12-18T10:21:33;21.90;35.10
11491;DHT22;5802;52.832;4.758;2022-12-18T10:24:12;21.90;35.20
11491;DHT22;5802;52.832;4.758;2022-12-18T10:26:41;21.90;35.20
11491;DHT22;5802;52.832;4.758;2022-12-18T10:29:10;22.00;35.40
11491;DHT22;5802;52.832;4.758;2022-12-18T10:31:40;21.90;35.30
11491;DHT22;5802;52.832;4.758;2022-12-18T10:34:09;22.00;35.30
11491;DHT22;5802;52.832;4.758;2022-12-18T10:36:36;22.00;35.10
11491;DHT22;5802;52.832;4.758;2022-12-18T10:39:17;22.00;35.10
11491;DHT22;5802;52.832;4.758;2022-12-18T10:41:44;22.00;35.00
11491;DHT22;5802;52.832;4.758;2022-12-18T10:44:15;22.00;34.90
11491;DHT22;5802;52.832;4.758;2022-12-18T10:46:42;22.00;34.90
11491;DHT22;5802;52.832;4.758;2022-12-18T10:49:19;22.00;34.80
11491;DHT22;5802;52.832;4.758;2022-12-18T10:51:47;22.00;34.80
11491;DHT22;5802;52.832;4.758;2022-12-18T10:54:17;22.00;34.70
11491;DHT22;5802;52.832;4.758;2022-12-18T10:56:45;22.00;34.70
11491;DHT22;5802;52.832;4.758;2022-12-18T10:59:13;22.00;34.80
11491;DHT22;5802;52.832;4.758;2022-12-18T11:01:48;22.00;34.80
11491;DHT22;5802;52.832;4.758;2022-12-18T11:04:21;22.00;34.90
11491;DHT22;5802;52.832;4.758;2022-12-18T11:06:57;22.10;34.90
11491;DHT22;5802;52.832;4.758;2022-12-18T11:09:27;22.10;35.00
11491;DHT22;5802;52.832;4.758;2022-12-18T11:11:56;22.10;35.00
11491;DHT22;5802;52.832;4.758;2022-12-18T11:14:26;22.10;35.00
11491;DHT22;5802;52.832;4.758;2022-12-18T11:16:54;22.10;35.10
11491;DHT22;5802;52.832;4.758;2022-12-18T11:19:30;22.10;35.00
11491;DHT22;5802;52.832;4.758;2022-12-18T11:21:58;22.10;34.90
11491;DHT22;5802;52.832;4.758;2022-12-18T11:24:30;22.10;34.90
11491;DHT22;5802;52.832;4.758;2022-12-18T11:26:58;22.10;34.90
11491;DHT22;5802;52.832;4.758;2022-12-18T11:29:32;22.10;34.80
11491;DHT22;5802;52.832;4.758;2022-12-18T11:32:25;22.10;34.80
11491;DHT22;5802;52.832;4.758;2022-12-18T11:35:01;22.10;34.80
11491;DHT22;5802;52.832;4.758;2022-12-18T11:37:29;22.10;35.00
11491;DHT22;5802;52.832;4.758;2022-12-18T11:40:00;22.10;35.10
11491;DHT22;5802;52.832;4.758;2022-12-18T11:42:35;22.10;35.20
11491;DHT22;5802;52.832;4.758;2022-12-18T11:45:18;22.10;35.20
11491;DHT22;5802;52.832;4.758;2022-12-18T11:47:52;22.10;35.30
11491;DHT22;5802;52.832;4.758;2022-12-18T11:50:24;22.10;35.40
11491;DHT22;5802;52.832;4.758;2022-12-18T11:52:51;22.10;35.50
11491;DHT22;5802;52.832;4.758;2022-12-18T11:55:26;22.10;35.60
11491;DHT22;5802;52.832;4.758;2022-12-18T11:58:00;22.10;35.60
11491;DHT22;5802;52.832;4.758;2022-12-18T12:00:28;22.10;35.70
11491;DHT22;5802;52.832;4.758;2022-12-18T12:03:35;22.20;35.80
11491;DHT22;5802;52.832;4.758;2022-12-18T12:06:13;22.20;35.80
11491;DHT22;5802;52.832;4.758;2022-12-18T12:08:56;22.10;35.90
11491;DHT22;5802;52.832;4.758;2022-12-18T12:11:35;22.20;36.00
11491;DHT22;5802;52.832;4.758;2022-12-18T12:14:17;22.20;36.00
11491;DHT22;5802;52.832;4.758;2022-12-18T12:16:51;22.20;36.10
11491;DHT22;5802;52.832;4.758;2022-12-18T12:19:32;22.20;36.20
11491;DHT22;5802;52.832;4.758;2022-12-18T12:22:07;22.20;36.20
11491;DHT22;5802;52.832;4.758;2022-12-18T12:24:49;22.20;36.20
11491;DHT22;5802;52.832;4.758;2022-12-18T12:27:26;22.20;36.30
11491;DHT22;5802;52.832;4.758;2022-12-18T12:30:00;22.20;36.30
11491;DHT22;5802;52.832;4.758;2022-12-18T12:32:41;22.20;36.30
11491;DHT22;5802;52.832;4.758;2022-12-18T12:35:21;22.30;36.40
11491;DHT22;5802;52.832;4.758;2022-12-18T12:38:00;22.30;36.40
11491;DHT22;5802;52.832;4.758;2022-12-18T12:40:39;22.30;36.40
11491;DHT22;5802;52.832;4.758;2022-12-18T12:43:22;22.20;36.40
11491;DHT22;5802;52.832;4.758;2022-12-18T12:45:53;22.30;36.40
11491;DHT22;5802;52.832;4.758;2022-12-18T12:48:31;22.30;36.40
11491;DHT22;5802;52.832;4.758;2022-12-18T12:51:01;22.30;36.60
11491;DHT22;5802;52.832;4.758;2022-12-18T12:53:31;22.30;36.80
11491;DHT22;5802;52.832;4.758;2022-12-18T12:55:59;22.30;36.90
11491;DHT22;5802;52.832;4.758;2022-12-18T12:58:31;22.30;37.00
11491;DHT22;5802;52.832;4.758;2022-12-18T13:01:12;22.30;37.70
11491;DHT22;5802;52.832;4.758;2022-12-18T13:03:48;22.30;37.10
11491;DHT22;5802;52.832;4.758;2022-12-18T13:06:28;22.30;37.10
11491;DHT22;5802;52.832;4.758;2022-12-18T13:09:00;22.30;37.10
11491;DHT22;5802;52.832;4.758;2022-12-18T13:11:30;22.40;37.20
11491;DHT22;5802;52.832;4.758;2022-12-18T13:14:28;22.40;37.20
11491;DHT22;5802;52.832;4.758;2022-12-18T13:17:16;22.40;37.20
11491;DHT22;5802;52.832;4.758;2022-12-18T13:19:43;22.40;37.20
11491;DHT22;5802;52.832;4.758;2022-12-18T13:22:21;22.40;37.10
11491;DHT22;5802;52.832;4.758;2022-12-18T13:24:49;22.40;37.10
11491;DHT22;5802;52.832;4.758;2022-12-18T13:27:52;22.40;37.10
11491;DHT22;5802;52.832;4.758;2022-12-18T13:30:45;22.40;37.10
11491;DHT22;5802;52.832;4.758;2022-12-18T13:33:45;22.40;37.10
11491;DHT22;5802;52.832;4.758;2022-12-18T13:36:25;22.40;37.00
11491;DHT22;5802;52.832;4.758;2022-12-18T13:42:37;22.40;37.10
11491;DHT22;5802;52.832;4.758;2022-12-18T13:45:38;22.40;37.30
11491;DHT22;5802;52.832;4.758;2022-12-18T13:48:14;22.40;37.40
11491;DHT22;5802;52.832;4.758;2022-12-18T13:50:42;22.40;37.50
11491;DHT22;5802;52.832;4.758;2022-12-18T13:53:18;22.40;37.60
11491;DHT22;5802;52.832;4.758;2022-12-18T13:55:46;22.40;37.50
11491;DHT22;5802;52.832;4.758;2022-12-18T13:58:13;22.40;37.50
11491;DHT22;5802;52.832;4.758;2022-12-18T14:00:42;22.40;37.30
11491;DHT22;5802;52.832;4.758;2022-12-18T14:03:18;22.40;37.30
11491;DHT22;5802;52.832;4.758;2022-12-18T14:05:45;22.40;37.20
11491;DHT22;5802;52.832;4.758;2022-12-18T14:08:18;22.40;37.10
11491;DHT22;5802;52.832;4.758;2022-12-18T14:10:47;22.40;37.00
11491;DHT22;5802;52.832;4.758;2022-12-18T14:13:18;22.40;37.00
11491;DHT22;5802;52.832;4.758;2022-12-18T14:15:47;22.40;36.90
11491;DHT22;5802;52.832;4.758;2022-12-18T14:18:20;22.30;36.80
11491;DHT22;5802;52.832;4.758;2022-12-18T14:20:49;22.40;36.80
11491;DHT22;5802;52.832;4.758;2022-12-18T14:23:31;22.40;36.80
11491;DHT22;5802;52.832;4.758;2022-12-18T14:25:59;22.30;36.70
11491;DHT22;5802;52.832;4.758;2022-12-18T14:28:26;22.30;36.60
11491;DHT22;5802;52.832;4.758;2022-12-18T14:30:53;22.30;36.40
11491;DHT22;5802;52.832;4.758;2022-12-18T14:33:24;22.30;36.50
11491;DHT22;5802;52.832;4.758;2022-12-18T14:35:59;22.30;36.60
11491;DHT22;5802;52.832;4.758;2022-12-18T14:38:28;22.30;36.60
11491;DHT22;5802;52.832;4.758;2022-12-18T14:40:58;22.30;36.70
11491;DHT22;5802;52.832;4.758;2022-12-18T14:43:26;22.30;36.70
11491;DHT22;5802;52.832;4.758;2022-12-18T14:45:54;22.30;36.70
11491;DHT22;5802;52.832;4.758;2022-12-18T14:48:33;22.30;36.80
11491;DHT22;5802;52.832;4.758;2022-12-18T14:51:03;22.30;36.80
11491;DHT22;5802;52.832;4.758;2022-12-18T14:53:34;22.30;36.80
11491;DHT22;5802;52.832;4.758;2022-12-18T14:56:02;22.30;36.90
11491;DHT22;5802;52.832;4.758;2022-12-18T14:58:29;22.30;36.80
11491;DHT22;5802;52.832;4.758;2022-12-18T15:00:56;22.30;36.80
11491;DHT22;5802;52.832;4.758;2022-12-18T15:03:25;22.30;36.90
11491;DHT22;5802;52.832;4.758;2022-12-18T15:05:52;22.30;36.80
11491;DHT22;5802;52.832;4.758;2022-12-18T15:08:30;22.20;36.80
11491;DHT22;5802;52.832;4.758;2022-12-18T15:10:57;22.20;36.80
11491;DHT22;5802;52.832;4.758;2022-12-18T15:13:24;22.20;36.90
11491;DHT22;5802;52.832;4.758;2022-12-18T15:15:52;22.20;36.90
11491;DHT22;5802;52.832;4.758;2022-12-18T15:18:21;22.20;36.80
11491;DHT22;5802;52.832;4.758;2022-12-18T15:20:52;22.20;36.70
11491;DHT22;5802;52.832;4.758;2022-12-18T15:23:22;22.20;36.70
11491;DHT22;5802;52.832;4.758;2022-12-18T15:25:55;22.20;36.70
11491;DHT22;5802;52.832;4.758;2022-12-18T15:28:24;22.20;36.70
11491;DHT22;5802;52.832;4.758;2022-12-18T15:31:03;22.30;36.80
11491;DHT22;5802;52.832;4.758;2022-12-18T15:33:32;22.20;36.70
11491;DHT22;5802;52.832;4.758;2022-12-18T15:36:03;22.20;36.70
11491;DHT22;5802;52.832;4.758;2022-12-18T15:38:30;22.30;36.80
11491;DHT22;5802;52.832;4.758;2022-12-18T15:40:57;22.30;36.80
11491;DHT22;5802;52.832;4.758;2022-12-18T15:43:25;22.30;36.70
11491;DHT22;5802;52.832;4.758;2022-12-18T15:46:01;22.20;36.60
11491;DHT22;5802;52.832;4.758;2022-12-18T15:48:28;22.20;36.60
11491;DHT22;5802;52.832;4.758;2022-12-18T15:50:56;22.30;36.60
11491;DHT22;5802;52.832;4.758;2022-12-18T15:53:27;22.30;36.60
11491;DHT22;5802;52.832;4.758;2022-12-18T15:55:54;22.30;36.60
11491;DHT22;5802;52.832;4.758;2022-12-18T15:58:38;22.30;36.60
11491;DHT22;5802;52.832;4.758;2022-12-18T16:01:05;22.30;36.70
11491;DHT22;5802;52.832;4.758;2022-12-18T16:03:33;22.30;36.60
11491;DHT22;5802;52.832;4.758;2022-12-18T16:06:00;22.20;36.60
11491;DHT22;5802;52.832;4.758;2022-12-18T16:08:29;22.30;36.60